KFTK/FTK METAR and TAF weather

Enter ICAO airport designator
Station Type Date Time Source
KFTK METAR 2021/06/24 05:56 UTC NOAA

KFTK 240556Z AUTO 00000KT 10SM CLR 15/15 A3013 RMK AO2 SLP202 T01470145 10244 20144


Station Type Date Time Source
KFTK Decoded METAR 2021/06/24 05:56 UTC NOAA

Fort Knox, KY, United States (KFTK) 37-54N 085-58W 230M
Jun 24, 2021 - 01:56 AM EDT / 2021.06.24 0556 UTC
Wind: Calm:0
Visibility: 10 mile(s):0
Sky conditions: clear
Temperature: 58.5 F (14.7 C)
Dew Point: 58.1 F (14.5 C)
Relative Humidity: 98%
Pressure (altimeter): 30.13 in. Hg (1020 hPa)
ob: KFTK 240556Z AUTO 00000KT 10SM CLR 15/15 A3013 RMK AO2 SLP202 T01470145 10244 20144
cycle: 6

Station Type Date Time Source
KFTK TAF 2021/06/24 02:17 UTC NOAA

TAF
AMD KFTK 240207Z 2402/2501 13006KT 9999 FEW080 QNH3010INS
BECMG 2415/2416 19010KT 9999 FEW040 QNH3006INS TX25/2419Z TN14/2411Z LAST NO
AMDS AFT 2403 NEXT 2412

Example: see airport list